Terminal Aerodrome Forecast
Issued by NWS

Home | Current Version | Previous Version | Graphics & Text | Print | Product List | Glossary On
Versions: 1 2 3 4 5 6 7 8 9 10 11 12 13 14 15 16 17 18 19 20 21 22 23 24 25 26 27 28 29 30 31 32 33 34 35 36 37 38 39 40 41
000
FTUS43 KLOT 251400 AAA
TAFMDW
TAF AMD
KMDW 251401Z 2514/2612 28011KT P6SM BKN018 OVC040
     FM251430 28011KT P6SM SCT018 OVC025
     FM251600 26009KT P6SM SCT025 SCT120
     FM260000 23006KT P6SM SCT040 SCT250
     FM260600 20004KT P6SM BKN250=

USA.gov is the U.S. government's official web portal to all federal, state and local government web resources and services.